Time;durP1;ratioP1;P1;durP2;ratioP2;P2;SDS_P1;SDS_P2;PMS_P1;PMS_P2;Temp;Humidity;BMP_temperature;BMP_pressure;BME280_temperature;BME280_humidity;BME280_pressure;Samples;Min_cycle;Max_cycle;Signal;HPM_P1;HPM_P2
2021/11/24 00:01:49;;;;;;;139.95;30.33;;;;;;;6.05;100.00;102206.66;5011397;28;20962;-65
2021/11/24 00:04:17;;;;;;;169.40;33.42;;;;;;;5.93;100.00;102202.13;5019796;28;20044;-65
2021/11/24 00:06:45;;;;;;;202.90;41.38;;;;;;;5.80;100.00;102194.13;5021889;28;20053;-64
2021/11/24 00:09:13;;;;;;;139.65;35.75;;;;;;;5.96;100.00;102205.41;5019210;28;20042;-65
2021/11/24 00:11:41;;;;;;;171.93;37.30;;;;;;;5.90;100.00;102205.81;5014292;28;20049;-65
2021/11/24 00:14:09;;;;;;;151.07;33.42;;;;;;;6.03;100.00;102193.50;5020882;28;20045;-65
2021/11/24 00:16:38;;;;;;;131.63;31.00;;;;;;;6.02;100.00;102185.63;5022314;28;20045;-65
2021/11/24 00:19:06;;;;;;;155.20;34.13;;;;;;;5.87;100.00;102198.06;5017818;28;20045;-65
2021/11/24 00:21:34;;;;;;;193.70;38.10;;;;;;;5.86;100.00;102199.00;5018521;28;20045;-65
2021/11/24 00:24:03;;;;;;;147.77;32.05;;;;;;;5.85;100.00;102200.81;5016795;28;20049;-65
2021/11/24 00:26:32;;;;;;;158.30;35.20;;;;;;;5.88;100.00;102201.56;5020851;28;20030;-65
2021/11/24 00:29:00;;;;;;;130.88;32.08;;;;;;;5.95;100.00;102200.22;5021032;28;20057;-64
2021/11/24 00:31:28;;;;;;;180.18;37.70;;;;;;;5.79;100.00;102203.84;5012242;28;20053;-65
2021/11/24 00:33:59;;;;;;;130.60;32.83;;;;;;;5.93;100.00;102204.78;5018089;28;20057;-65
2021/11/24 00:36:28;;;;;;;155.02;34.53;;;;;;;5.98;100.00;102205.34;5021840;28;20049;-65
2021/11/24 00:38:56;;;;;;;230.23;54.03;;;;;;;5.80;100.00;102202.91;5018487;28;20061;-65
2021/11/24 00:41:24;;;;;;;216.85;47.92;;;;;;;5.77;100.00;102200.47;5013124;28;20064;-64
2021/11/24 00:43:52;;;;;;;217.38;47.15;;;;;;;5.72;100.00;102202.53;5018870;28;20267;-65
2021/11/24 00:46:20;;;;;;;245.63;68.85;;;;;;;5.74;100.00;102200.66;5015084;28;20065;-65
2021/11/24 00:48:48;;;;;;;183.95;41.92;;;;;;;5.76;100.00;102189.97;5022131;28;20046;-65
2021/11/24 00:51:17;;;;;;;276.88;57.22;;;;;;;5.70;100.00;102201.81;5010065;28;20042;-65
2021/11/24 00:53:45;;;;;;;340.00;80.97;;;;;;;5.69;100.00;102197.44;5020083;28;20049;-65
2021/11/24 00:56:13;;;;;;;159.70;38.88;;;;;;;5.75;100.00;102196.19;5018168;28;20038;-65
2021/11/24 00:58:41;;;;;;;185.50;39.13;;;;;;;5.71;100.00;102195.53;5023867;28;20072;-65
2021/11/24 01:01:09;;;;;;;223.35;45.80;;;;;;;5.74;100.00;102194.50;5018275;28;20042;-65
2021/11/24 01:03:38;;;;;;;230.85;41.45;;;;;;;5.71;100.00;102192.88;5017502;28;20069;-65
2021/11/24 01:06:06;;;;;;;211.38;43.50;;;;;;;5.67;100.00;102201.97;5019853;28;20586;-65
2021/11/24 01:08:36;;;;;;;274.98;46.17;;;;;;;5.68;100.00;102198.38;5018134;28;20050;-65
2021/11/24 01:11:04;;;;;;;176.25;39.28;;;;;;;5.82;100.00;102190.38;5018037;28;20581;-65
2021/11/24 01:13:32;;;;;;;155.13;31.80;;;;;;;5.81;100.00;102186.06;5023249;28;20048;-65
2021/11/24 01:16:00;;;;;;;226.00;41.55;;;;;;;5.73;100.00;102177.75;5023816;28;20057;-65
2021/11/24 01:18:28;;;;;;;294.20;49.13;;;;;;;5.68;100.00;102193.09;5023180;28;20049;-65
2021/11/24 01:20:56;;;;;;;153.15;33.72;;;;;;;5.79;100.00;102184.44;5019159;28;20060;-65
2021/11/24 01:23:25;;;;;;;210.73;40.70;;;;;;;5.73;100.00;102187.47;5026058;28;20445;-65
2021/11/24 01:25:54;;;;;;;288.27;49.97;;;;;;;5.72;100.00;102177.84;5021650;28;20058;-65
2021/11/24 01:28:22;;;;;;;325.55;48.35;;;;;;;5.67;100.00;102175.47;5021140;28;20053;-65
2021/11/24 01:30:50;;;;;;;390.33;56.42;;;;;;;5.63;100.00;102174.00;5023696;28;20053;-65
2021/11/24 01:33:18;;;;;;;263.75;43.42;;;;;;;5.63;100.00;102166.03;5013811;28;20041;-66
2021/11/24 01:35:46;;;;;;;179.63;38.35;;;;;;;5.82;100.00;102166.53;5023367;28;20049;-66
2021/11/24 01:38:14;;;;;;;266.05;43.63;;;;;;;5.72;100.00;102162.78;5024025;28;20056;-66
2021/11/24 01:40:42;;;;;;;310.42;47.50;;;;;;;5.64;100.00;102157.13;5021071;28;20315;-66
2021/11/24 01:43:13;;;;;;;182.70;36.88;;;;;;;5.67;100.00;102160.44;5019315;28;20047;-66
2021/11/24 01:45:41;;;;;;;220.25;41.15;;;;;;;5.69;100.00;102160.34;5021037;28;20119;-66
2021/11/24 01:48:09;;;;;;;410.02;57.80;;;;;;;5.61;100.00;102158.16;5022679;28;20068;-66
2021/11/24 01:50:37;;;;;;;431.50;64.22;;;;;;;5.61;100.00;102163.44;5021700;28;20334;-65
2021/11/24 01:53:06;;;;;;;314.90;50.35;;;;;;;5.60;100.00;102161.78;5015543;28;20375;-66
2021/11/24 01:55:34;;;;;;;314.15;53.25;;;;;;;5.61;100.00;102150.19;5021586;28;20049;-66
2021/11/24 01:58:03;;;;;;;457.52;70.97;;;;;;;5.63;100.00;102143.03;5019517;28;20048;-65
2021/11/24 02:00:33;;;;;;;351.52;52.08;;;;;;;5.60;100.00;102143.22;5024950;28;20041;-65
2021/11/24 02:03:03;;;;;;;221.10;44.20;;;;;;;5.64;100.00;102138.56;5014199;28;20053;-65
2021/11/24 02:05:33;;;;;;;193.48;44.63;;;;;;;5.72;100.00;102135.44;5019297;28;20060;-65
2021/11/24 02:08:01;;;;;;;474.98;75.50;;;;;;;5.60;100.00;102140.56;5022594;28;20041;-65
2021/11/24 02:10:29;;;;;;;161.98;40.60;;;;;;;5.69;100.00;102125.88;5020870;28;20061;-65
2021/11/24 02:12:57;;;;;;;211.52;47.72;;;;;;;5.71;100.00;102123.97;5019146;28;20100;-66
2021/11/24 02:15:25;;;;;;;220.63;49.20;;;;;;;5.73;100.00;102118.56;5021059;28;20068;-66
2021/11/24 02:17:54;;;;;;;280.45;52.47;;;;;;;5.64;100.00;102117.34;5018571;28;20049;-65
2021/11/24 02:20:39;;;;;;;189.88;40.67;;;;;;;5.67;100.00;102111.84;5021986;28;20407;-66
2021/11/24 02:23:09;;;;;;;496.42;75.65;;;;;;;5.55;100.00;102110.84;5015010;28;20053;-66
2021/11/24 02:25:38;;;;;;;476.73;75.32;;;;;;;5.58;100.00;102109.81;5022618;28;20041;-66
2021/11/24 02:28:06;;;;;;;494.85;80.05;;;;;;;5.52;100.00;102103.94;5021163;28;20046;-66
2021/11/24 02:30:34;;;;;;;454.88;72.25;;;;;;;5.53;100.00;102102.16;5020197;28;20041;-65
2021/11/24 02:33:03;;;;;;;159.27;43.33;;;;;;;5.60;100.00;102100.81;5020973;28;20045;-66
2021/11/24 02:35:31;;;;;;;349.90;58.70;;;;;;;5.57;100.00;102100.16;5020775;28;20460;-65
2021/11/24 02:38:03;;;;;;;479.45;81.00;;;;;;;5.50;100.00;102092.63;5018570;28;20345;-65
2021/11/24 02:40:32;;;;;;;495.92;86.63;;;;;;;5.50;100.00;102084.66;5019741;28;20046;-65
2021/11/24 02:43:00;;;;;;;421.98;71.75;;;;;;;5.62;100.00;102087.47;5012803;28;20433;-66
2021/11/24 02:45:28;;;;;;;186.48;46.30;;;;;;;5.64;100.00;102078.47;5023105;28;20338;-65
2021/11/24 02:47:57;;;;;;;173.32;45.40;;;;;;;5.70;100.00;102074.56;5019326;28;20049;-66
2021/11/24 02:50:25;;;;;;;435.20;82.07;;;;;;;5.59;100.00;102072.63;5022971;28;20053;-66
2021/11/24 02:52:53;;;;;;;534.92;89.30;;;;;;;5.47;100.00;102061.03;5020535;28;20052;-66
2021/11/24 02:55:23;;;;;;;312.15;61.80;;;;;;;5.51;100.00;102070.47;5018297;28;20468;-65
2021/11/24 02:57:53;;;;;;;141.82;44.65;;;;;;;5.57;100.00;102068.34;5020048;28;20041;-65
2021/11/24 03:00:25;;;;;;;411.52;73.55;;;;;;;5.54;100.00;102068.56;5020666;28;20041;-66
2021/11/24 03:02:54;;;;;;;562.83;96.93;;;;;;;5.45;100.00;102068.19;5011758;28;20049;-66
2021/11/24 03:05:25;;;;;;;535.25;92.85;;;;;;;5.44;100.00;102061.19;5021904;28;20059;-66
2021/11/24 03:07:58;;;;;;;483.05;80.70;;;;;;;5.48;100.00;102056.56;5017171;28;20128;-66
2021/11/24 03:10:27;;;;;;;595.83;104.32;;;;;;;5.43;100.00;102050.69;5022664;28;20050;-66
2021/11/24 03:12:55;;;;;;;506.65;92.65;;;;;;;5.40;100.00;102057.06;5013704;28;20072;-66
2021/11/24 03:15:23;;;;;;;394.38;71.32;;;;;;;5.42;100.00;102039.25;5019721;28;20051;-66
2021/11/24 03:17:51;;;;;;;177.27;49.38;;;;;;;5.58;100.00;102032.97;5017524;28;20049;-66
2021/11/24 03:20:20;;;;;;;467.52;90.82;;;;;;;5.45;100.00;102028.47;5018121;28;20056;-66
2021/11/24 03:22:48;;;;;;;468.25;84.47;;;;;;;5.48;100.00;102032.72;5015630;28;20054;-66
2021/11/24 03:25:16;;;;;;;517.95;91.60;;;;;;;5.40;100.00;102025.28;5017678;28;20052;-66
2021/11/24 03:27:45;;;;;;;401.80;83.00;;;;;;;5.42;100.00;102022.53;5019857;28;20045;-65
2021/11/24 03:30:16;;;;;;;303.50;67.50;;;;;;;5.48;100.00;102022.94;5019207;28;20076;-65
2021/11/24 03:32:44;;;;;;;513.22;95.57;;;;;;;5.45;100.00;102023.16;5011032;28;20108;-66
2021/11/24 03:35:14;;;;;;;485.17;89.30;;;;;;;5.37;100.00;102012.19;5018117;28;20532;-66
2021/11/24 03:37:42;;;;;;;179.38;53.33;;;;;;;5.50;100.00;102010.47;5023091;28;20100;-66
2021/11/24 03:40:12;;;;;;;162.02;50.75;;;;;;;5.56;100.00;102006.56;5019582;28;20057;-65
2021/11/24 03:42:44;;;;;;;213.07;54.72;;;;;;;5.60;100.00;102007.19;5014017;28;20042;-65
2021/11/24 03:45:14;;;;;;;541.30;98.13;;;;;;;5.40;100.00;102006.72;5018792;28;20045;-66
2021/11/24 03:47:43;;;;;;;195.77;51.08;;;;;;;5.52;100.00;101997.97;5017990;28;20459;-65
2021/11/24 03:50:12;;;;;;;417.92;80.05;;;;;;;5.47;100.00;101994.78;5017973;28;20050;-65
2021/11/24 03:52:40;;;;;;;490.30;90.47;;;;;;;5.44;100.00;101984.34;5013311;28;20437;-65
2021/11/24 03:55:10;;;;;;;613.47;109.15;;;;;;;5.39;100.00;101990.91;5020257;28;20670;-65
2021/11/24 03:57:38;;;;;;;431.52;86.35;;;;;;;5.40;100.00;101988.19;5019591;28;20056;-65
2021/11/24 04:00:08;;;;;;;510.15;91.20;;;;;;;5.38;100.00;101984.78;5019816;28;20053;-66
2021/11/24 04:02:37;;;;;;;436.67;83.82;;;;;;;5.47;100.00;101980.66;5017125;28;20448;-66
2021/11/24 04:05:07;;;;;;;524.72;95.03;;;;;;;5.43;100.00;101976.50;5018678;28;20066;-66
2021/11/24 04:07:35;;;;;;;171.43;48.42;;;;;;;5.49;100.00;101982.25;5024606;28;20354;-65
2021/11/24 04:10:05;;;;;;;484.35;90.30;;;;;;;5.42;100.00;101980.97;5018492;28;20334;-65
2021/11/24 04:12:33;;;;;;;409.63;81.07;;;;;;;5.42;100.00;101980.97;5012583;28;20053;-65
2021/11/24 04:15:01;;;;;;;183.50;53.47;;;;;;;5.50;100.00;101976.03;5021171;28;20124;-66
2021/11/24 04:17:29;;;;;;;617.75;108.68;;;;;;;5.42;100.00;101967.72;5018009;28;20677;-66
2021/11/24 04:19:58;;;;;;;162.90;48.70;;;;;;;5.51;100.00;101968.91;5017289;28;20461;-66
2021/11/24 04:22:26;;;;;;;151.73;48.92;;;;;;;5.47;100.00;101962.13;5008955;28;20050;-65
2021/11/24 04:24:54;;;;;;;244.18;53.00;;;;;;;5.59;100.00;101956.00;5020822;28;20053;-66
2021/11/24 04:27:23;;;;;;;432.15;79.43;;;;;;;5.47;100.00;101954.16;5018586;28;20488;-66
2021/11/24 04:29:51;;;;;;;483.58;91.63;;;;;;;5.48;100.00;101954.06;5018954;28;20046;-65
2021/11/24 04:32:19;;;;;;;333.73;65.07;;;;;;;5.46;100.00;101952.50;5015563;28;20484;-66
2021/11/24 04:34:47;;;;;;;231.38;54.28;;;;;;;5.54;100.00;101951.97;5019826;28;20038;-65
2021/11/24 04:37:17;;;;;;;377.75;77.65;;;;;;;5.60;100.00;101954.19;5017816;28;20076;-65
2021/11/24 04:39:45;;;;;;;359.08;72.85;;;;;;;5.60;100.00;101956.84;5017201;28;20341;-65
2021/11/24 04:42:13;;;;;;;164.60;44.20;;;;;;;5.67;100.00;101952.81;5005536;28;20046;-65
2021/11/24 04:44:41;;;;;;;233.50;48.88;;;;;;;5.81;100.00;101951.91;5024756;28;20052;-65
2021/11/24 04:47:09;;;;;;;171.65;45.20;;;;;;;5.72;100.00;101947.25;5020108;28;20069;-65
2021/11/24 04:49:37;;;;;;;107.75;38.00;;;;;;;5.80;100.00;101953.72;5021761;28;20452;-65
2021/11/24 04:52:05;;;;;;;341.70;60.70;;;;;;;5.76;100.00;101948.72;5012369;28;20434;-65
2021/11/24 04:54:35;;;;;;;320.98;57.38;;;;;;;5.62;100.00;101944.34;5021821;28;20046;-65
2021/11/24 04:57:04;;;;;;;472.27;76.47;;;;;;;5.52;100.00;101939.66;5024440;28;20080;-64
2021/11/24 04:59:32;;;;;;;112.68;35.75;;;;;;;5.69;100.00;101938.53;5020306;28;20049;-65
2021/11/24 05:02:00;;;;;;;99.00;36.17;;;;;;;5.82;100.00;101943.84;5023911;28;20049;-65
2021/11/24 05:04:29;;;;;;;143.27;39.25;;;;;;;5.93;100.00;101935.16;5024662;28;20052;-64
2021/11/24 05:06:57;;;;;;;129.85;36.40;;;;;;;5.96;100.00;101936.75;5021423;28;20041;-64
2021/11/24 05:09:25;;;;;;;111.38;37.10;;;;;;;5.94;100.00;101930.69;5024974;28;20121;-65
2021/11/24 05:11:54;;;;;;;95.50;33.55;;;;;;;5.95;100.00;101921.78;5014907;28;20041;-64
2021/11/24 05:14:26;;;;;;;118.90;38.05;;;;;;;5.93;100.00;101921.06;5023863;28;20376;-64
2021/11/24 05:16:54;;;;;;;100.90;37.10;;;;;;;5.88;100.00;101920.53;5018510;28;20095;-65
2021/11/24 05:19:23;;;;;;;165.88;40.45;;;;;;;5.75;100.00;101918.72;5027213;28;20053;-65
2021/11/24 05:21:53;;;;;;;126.95;36.25;;;;;;;5.79;100.00;101916.72;5013644;28;20460;-65
2021/11/24 05:24:21;;;;;;;153.60;37.22;;;;;;;5.87;100.00;101917.03;5022971;28;20042;-65
2021/11/24 05:26:49;;;;;;;141.07;34.80;;;;;;;5.94;100.00;101913.00;5023556;28;20049;-64
2021/11/24 05:29:19;;;;;;;100.65;32.60;;;;;;;5.99;100.00;101910.06;5020547;28;20438;-64
2021/11/24 05:31:48;;;;;;;108.63;34.35;;;;;;;5.96;100.00;101907.59;5011907;28;20108;-64
2021/11/24 05:34:16;;;;;;;104.70;33.97;;;;;;;6.03;100.00;101900.94;5020514;28;20430;-64
2021/11/24 05:36:44;;;;;;;123.25;37.65;;;;;;;6.03;100.00;101906.25;5021037;28;20049;-65
2021/11/24 05:39:12;;;;;;;122.55;39.40;;;;;;;5.99;100.00;101899.44;5020645;28;20045;-65
2021/11/24 05:41:41;;;;;;;131.45;36.38;;;;;;;6.00;100.00;101903.81;5013652;28;20057;-64
2021/11/24 05:44:21;;;;;;;128.13;36.83;;;;;;;6.05;100.00;101899.00;5023690;28;20377;-65
2021/11/24 05:46:53;;;;;;;138.68;41.75;;;;;;;6.02;100.00;101893.94;5020408;28;20037;-64
2021/11/24 05:49:22;;;;;;;122.90;33.92;;;;;;;6.02;100.00;101899.22;5019880;28;20038;-64
2021/11/24 05:51:50;;;;;;;124.93;36.60;;;;;;;5.98;100.00;101888.00;5016895;28;20065;-65
2021/11/24 05:54:18;;;;;;;159.57;37.33;;;;;;;5.89;100.00;101882.47;5022613;28;20613;-64
2021/11/24 05:56:46;;;;;;;182.27;39.40;;;;;;;5.90;100.00;101892.97;5021112;28;20457;-65
2021/11/24 05:59:16;;;;;;;142.88;37.03;;;;;;;5.95;100.00;101895.28;5018594;28;20045;-64
2021/11/24 06:01:45;;;;;;;126.50;37.95;;;;;;;5.95;100.00;101888.16;5010739;28;20345;-64
2021/11/24 06:04:14;;;;;;;134.00;41.95;;;;;;;5.93;100.00;101887.44;5015489;28;20044;-65
2021/11/24 06:06:45;;;;;;;131.38;36.10;;;;;;;5.89;100.00;101887.75;5019156;28;20563;-64
2021/11/24 06:09:13;;;;;;;132.18;40.25;;;;;;;5.88;100.00;101892.19;5021759;28;20041;-64
2021/11/24 06:11:43;;;;;;;147.38;43.28;;;;;;;5.89;100.00;101882.47;5016804;28;20484;-64
2021/11/24 06:14:11;;;;;;;165.43;43.20;;;;;;;5.89;100.00;101875.34;5021748;28;20038;-65
2021/11/24 06:16:38;;;;;;;160.88;40.03;;;;;;;5.85;100.00;101873.84;5022016;28;20050;-64
2021/11/24 06:19:06;;;;;;;172.27;40.80;;;;;;;5.82;100.00;101872.25;5016984;28;20042;-64
2021/11/24 06:21:36;;;;;;;120.57;35.22;;;;;;;5.85;100.00;101873.84;5010817;28;20109;-64
2021/11/24 06:24:05;;;;;;;119.32;34.90;;;;;;;5.77;100.00;101863.81;5019137;28;20041;-64
2021/11/24 06:26:33;;;;;;;138.32;34.60;;;;;;;5.82;100.00;101860.81;5020901;28;20041;-64
2021/11/24 06:29:01;;;;;;;123.93;38.80;;;;;;;5.81;100.00;101859.13;5018554;28;20045;-64
2021/11/24 06:31:29;;;;;;;118.85;34.25;;;;;;;5.84;100.00;101865.06;5014377;28;20070;-64
2021/11/24 06:33:57;;;;;;;129.25;38.63;;;;;;;5.79;100.00;101855.75;5018479;28;20057;-64
2021/11/24 06:36:43;;;;;;;186.90;41.55;;;;;;;5.79;100.00;101851.28;5019299;28;20041;-64
2021/11/24 06:39:11;;;;;;;101.22;33.15;;;;;;;5.77;100.00;101853.19;5018592;28;20073;-65
2021/11/24 06:41:40;;;;;;;109.15;34.30;;;;;;;5.85;100.00;101850.88;5015927;28;20049;-64
2021/11/24 06:44:12;;;;;;;95.45;35.67;;;;;;;5.82;100.00;101848.41;5018593;28;20068;-64
2021/11/24 06:46:40;;;;;;;148.95;38.05;;;;;;;5.72;100.00;101847.34;5025333;28;20053;-64
2021/11/24 06:49:08;;;;;;;112.28;35.58;;;;;;;5.74;100.00;101840.16;5017466;28;20053;-65
2021/11/24 06:51:36;;;;;;;106.60;36.03;;;;;;;5.73;100.00;101837.59;5008175;28;20460;-65
2021/11/24 06:54:06;;;;;;;108.32;36.00;;;;;;;5.74;100.00;101836.66;5020735;28;20045;-64
2021/11/24 06:56:34;;;;;;;151.07;39.03;;;;;;;5.75;100.00;101839.19;5018581;28;20057;-64
2021/11/24 06:59:02;;;;;;;104.88;32.08;;;;;;;5.79;100.00;101842.50;5019915;28;20041;-65
2021/11/24 07:01:30;;;;;;;83.32;29.38;;;;;;;5.82;100.00;101848.41;5018457;28;20053;-65
2021/11/24 07:04:04;;;;;;;214.05;40.40;;;;;;;5.71;100.00;101840.34;5022231;28;20065;-65
2021/11/24 07:06:32;;;;;;;113.78;30.80;;;;;;;5.75;100.00;101828.59;5020087;28;20042;-65
2021/11/24 07:09:02;;;;;;;95.60;28.60;;;;;;;5.77;100.00;101820.53;5019055;28;20125;-64
2021/11/24 07:11:35;;;;;;;105.22;32.42;;;;;;;5.85;100.00;101824.34;5013938;28;20064;-64
2021/11/24 07:14:03;;;;;;;97.97;31.65;;;;;;;5.81;100.00;101828.19;5018740;28;20041;-64
2021/11/24 07:16:31;;;;;;;91.32;28.52;;;;;;;5.79;100.00;101822.13;5019023;28;20054;-64
2021/11/24 07:18:59;;;;;;;111.82;31.52;;;;;;;5.77;100.00;101816.09;5019907;28;20053;-64
2021/11/24 07:21:27;;;;;;;105.30;29.35;;;;;;;5.91;100.00;101811.59;5010706;28;20050;-64
2021/11/24 07:23:56;;;;;;;101.63;30.08;;;;;;;5.86;100.00;101815.44;5016647;28;20072;-64
2021/11/24 07:26:24;;;;;;;118.75;34.45;;;;;;;5.84;100.00;101814.69;5019936;28;20041;-64
2021/11/24 07:28:53;;;;;;;205.90;59.38;;;;;;;5.81;100.00;101817.56;5019099;28;20156;-64
2021/11/24 07:31:22;;;;;;;250.32;59.25;;;;;;;5.74;100.00;101823.38;5016361;28;20045;-64
2021/11/24 07:33:50;;;;;;;175.10;40.17;;;;;;;5.63;100.00;101824.16;5018764;28;20053;-64
2021/11/24 07:36:18;;;;;;;159.65;38.15;;;;;;;5.68;100.00;101822.00;5019910;28;20046;-64
2021/11/24 07:38:45;;;;;;;196.50;47.78;;;;;;;5.69;100.00;101823.72;5020131;28;20100;-64
2021/11/24 07:41:13;;;;;;;210.60;46.00;;;;;;;5.78;100.00;101831.00;5012610;28;20057;-65
2021/11/24 07:43:42;;;;;;;235.38;48.58;;;;;;;5.74;100.00;101832.22;5019534;28;20053;-64
2021/11/24 07:46:11;;;;;;;157.45;39.45;;;;;;;5.96;100.00;101836.00;5017322;28;20068;-64
2021/11/24 07:48:39;;;;;;;223.75;44.30;;;;;;;5.97;100.00;101822.66;5017871;28;20405;-64
2021/11/24 07:51:09;;;;;;;285.30;50.08;;;;;;;5.76;100.00;101818.84;5011948;28;20053;-64
2021/11/24 07:53:37;;;;;;;92.10;29.58;;;;;;;6.04;100.00;101815.13;5020924;28;20046;-64
2021/11/24 07:56:05;;;;;;;369.27;57.83;;;;;;;5.80;100.00;101818.53;5015502;28;20053;-64
2021/11/24 07:58:33;;;;;;;112.22;32.03;;;;;;;6.07;100.00;101819.34;5016647;28;20041;-64
2021/11/24 08:01:01;;;;;;;128.55;35.33;;;;;;;6.11;100.00;101818.16;5021194;28;20041;-64
2021/11/24 08:03:33;;;;;;;102.13;30.77;;;;;;;6.12;100.00;101820.72;5006523;28;20041;-64
2021/11/24 08:06:01;;;;;;;101.95;31.98;;;;;;;6.17;100.00;101815.09;5019254;28;20048;-64
2021/11/24 08:08:29;;;;;;;125.05;34.47;;;;;;;6.18;100.00;101804.38;5019686;28;20041;-64
2021/11/24 08:10:58;;;;;;;125.20;36.67;;;;;;;6.16;100.00;101800.97;5021159;28;20534;-64
2021/11/24 08:13:26;;;;;;;110.20;33.67;;;;;;;6.15;100.00;101799.31;5009473;28;20052;-64
2021/11/24 08:15:54;;;;;;;134.57;35.97;;;;;;;6.20;100.00;101805.09;5017271;28;20034;-64
2021/11/24 08:18:22;;;;;;;134.40;41.80;;;;;;;6.22;100.00;101797.03;5020028;28;20045;-64
2021/11/24 08:20:52;;;;;;;116.78;39.30;;;;;;;6.25;100.00;101803.94;5017388;28;20053;-64
2021/11/24 08:23:20;;;;;;;123.90;37.72;;;;;;;6.24;100.00;101791.63;5009568;28;20049;-64
2021/11/24 08:25:48;;;;;;;117.63;36.67;;;;;;;6.29;100.00;101797.44;5023351;28;20042;-64
2021/11/24 08:28:16;;;;;;;137.15;40.90;;;;;;;6.37;100.00;101781.81;5012147;28;20042;-64
2021/11/24 08:30:45;;;;;;;140.50;38.72;;;;;;;6.37;100.00;101784.47;5036150;28;20054;-64
2021/11/24 08:33:13;;;;;;;131.32;38.60;;;;;;;6.29;100.00;101778.88;5016510;28;20088;-64
2021/11/24 08:35:41;;;;;;;122.25;36.90;;;;;;;6.38;100.00;101778.22;5014538;28;20046;-64
2021/11/24 08:38:11;;;;;;;121.75;34.10;;;;;;;6.32;100.00;101770.69;5013364;28;20042;-64
2021/11/24 08:40:39;;;;;;;124.18;31.55;;;;;;;6.45;100.00;101774.16;5018843;28;20057;-64
2021/11/24 08:43:07;;;;;;;116.35;32.40;;;;;;;6.47;100.00;101772.22;5012672;28;20465;-64
2021/11/24 08:45:35;;;;;;;97.55;31.52;;;;;;;6.40;100.00;101767.50;5017670;28;20048;-64
2021/11/24 08:48:04;;;;;;;111.30;34.55;;;;;;;6.44;100.00;101777.75;5017180;28;20057;-64
2021/11/24 08:50:32;;;;;;;107.07;32.05;;;;;;;6.23;100.00;101766.91;5014992;28;20065;-64
2021/11/24 08:53:02;;;;;;;105.85;31.42;;;;;;;6.40;100.00;101765.66;5016279;28;20049;-64
2021/11/24 08:55:31;;;;;;;101.40;29.75;;;;;;;6.59;100.00;101766.97;5024783;28;20045;-64
2021/11/24 08:57:59;;;;;;;99.20;28.63;;;;;;;6.41;100.00;101769.16;5018321;28;20038;-64
2021/11/24 09:00:28;;;;;;;98.10;28.83;;;;;;;6.35;100.00;101763.38;5024108;28;20326;-64
2021/11/24 09:02:59;;;;;;;89.93;30.67;;;;;;;6.34;100.00;101763.47;5011142;28;20066;-64
2021/11/24 09:05:27;;;;;;;98.97;31.25;;;;;;;6.61;100.00;101770.38;5018153;28;20042;-64
2021/11/24 09:07:56;;;;;;;98.03;28.70;;;;;;;6.57;100.00;101761.78;5020459;28;20049;-64
2021/11/24 09:10:26;;;;;;;89.82;27.70;;;;;;;6.58;100.00;101765.25;5017844;28;20058;-64
2021/11/24 09:12:56;;;;;;;84.57;27.30;;;;;;;6.60;100.00;101760.69;5012283;28;20053;-64
2021/11/24 09:15:24;;;;;;;78.13;25.60;;;;;;;6.55;100.00;101753.94;5019777;28;20048;-64
2021/11/24 09:18:12;;;;;;;87.28;26.52;;;;;;;6.53;100.00;101753.22;5017814;28;20204;-64
2021/11/24 09:20:43;;;;;;;71.63;22.70;;;;;;;6.68;100.00;101747.72;5020172;28;20489;-64
2021/11/24 09:23:13;;;;;;;73.68;23.17;;;;;;;6.80;100.00;101741.47;5013455;28;20124;-64
2021/11/24 09:25:49;;;;;;;79.47;25.23;;;;;;;6.77;100.00;101743.50;5016468;28;20064;-64
2021/11/24 09:28:19;;;;;;;78.28;24.45;;;;;;;6.76;100.00;101729.38;5018539;28;20045;-64
2021/11/24 09:30:48;;;;;;;73.07;26.23;;;;;;;6.88;100.00;101744.38;5019826;28;20034;-64
2021/11/24 09:33:17;;;;;;;71.07;25.15;;;;;;;6.86;100.00;101738.34;5014059;28;20073;-64
2021/11/24 09:35:45;;;;;;;65.75;22.70;;;;;;;6.79;100.00;101723.84;5020059;28;20508;-64
2021/11/24 09:38:13;;;;;;;69.97;24.83;;;;;;;7.00;100.00;101720.50;5017278;28;20342;-65
2021/11/24 09:40:41;;;;;;;66.03;25.10;;;;;;;7.04;100.00;101714.84;5023531;28;20394;-65
2021/11/24 09:43:11;;;;;;;66.05;23.08;;;;;;;6.91;100.00;101721.22;5016230;28;20437;-68
2021/11/24 09:45:43;;;;;;;79.05;23.63;;;;;;;6.69;100.00;101706.91;5027930;28;20059;-65
2021/11/24 09:48:14;;;;;;;63.40;21.52;;;;;;;6.79;100.00;101710.59;5022036;28;20474;-65
2021/11/24 09:50:44;;;;;;;63.65;22.13;;;;;;;6.75;100.00;101701.16;5016919;28;20053;-64
2021/11/24 09:53:12;;;;;;;79.05;24.70;;;;;;;6.77;100.00;101704.53;5019932;28;20050;-65
2021/11/24 09:55:41;;;;;;;66.75;21.75;;;;;;;6.98;100.00;101706.53;5019077;28;20041;-65
2021/11/24 09:58:10;;;;;;;70.00;22.55;;;;;;;6.81;100.00;101702.50;5021856;28;20421;-65
2021/11/24 10:00:41;;;;;;;71.70;22.60;;;;;;;6.72;100.00;101706.72;5022221;28;20388;-65
2021/11/24 10:03:10;;;;;;;59.33;22.42;;;;;;;6.72;100.00;101701.41;5013022;28;20053;-66
2021/11/24 10:05:39;;;;;;;58.08;21.27;;;;;;;7.04;100.00;101704.22;5019523;28;20050;-66
2021/11/24 10:08:08;;;;;;;68.47;22.45;;;;;;;7.14;100.00;101700.88;5016415;28;20046;-65
2021/11/24 10:10:36;;;;;;;71.55;23.42;;;;;;;7.14;100.00;101700.88;5021315;28;20052;-65
2021/11/24 10:13:06;;;;;;;60.70;20.00;;;;;;;7.15;100.00;101695.44;5010365;28;20045;-65
2021/11/24 10:15:41;;;;;;;68.22;22.52;;;;;;;6.91;100.00;101692.03;5020216;28;20060;-66
2021/11/24 10:18:18;;;;;;;58.70;20.25;;;;;;;7.02;100.00;101692.03;5019732;28;20129;-65
2021/11/24 10:20:49;;;;;;;68.63;21.98;;;;;;;7.29;100.00;101693.53;5017446;28;20450;-65
2021/11/24 10:23:23;;;;;;;65.05;21.63;;;;;;;7.53;100.00;101680.09;5011762;28;20042;-65
2021/11/24 10:25:52;;;;;;;61.55;22.20;;;;;;;7.64;100.00;101669.47;5022147;28;20064;-65
2021/11/24 10:28:31;;;;;;;52.88;19.65;;;;;;;7.74;100.00;101666.91;5020348;28;20068;-65
2021/11/24 10:31:00;;;;;;;51.63;21.42;;;;;;;7.74;100.00;101657.09;5023478;28;20065;-66
2021/11/24 10:33:30;;;;;;;65.57;22.05;;;;;;;7.85;100.00;101653.59;5016873;28;20049;-65
2021/11/24 10:36:06;;;;;;;54.92;18.70;;;;;;;7.85;100.00;101652.72;5022307;28;20046;-65
2021/11/24 10:38:45;;;;;;;54.88;19.50;;;;;;;7.53;100.00;101642.91;5020437;28;20099;-66
2021/11/24 10:41:20;;;;;;;57.72;20.20;;;;;;;7.24;100.00;101644.25;5012837;28;20429;-65
2021/11/24 10:43:59;;;;;;;52.58;21.20;;;;;;;7.44;100.00;101633.81;5018712;28;20120;-66
2021/11/24 10:46:27;;;;;;;55.70;20.80;;;;;;;7.67;100.00;101639.09;5017336;28;20333;-65
2021/11/24 10:49:06;;;;;;;55.63;20.60;;;;;;;7.69;100.00;101631.88;5017666;28;20045;-66
2021/11/24 10:51:37;;;;;;;55.80;19.70;;;;;;;7.84;100.00;101630.63;5017101;28;20045;-65
2021/11/24 10:54:14;;;;;;;55.70;20.80;;;;;;;7.64;100.00;101623.41;5017901;28;20483;-65
2021/11/24 10:57:09;;;;;;;53.50;18.90;;;;;;;7.84;100.00;101614.66;5022265;28;20049;-66
2021/11/24 10:59:39;;;;;;;49.35;18.75;;;;;;;8.20;100.00;101617.91;4988364;28;20072;-66
2021/11/24 11:02:23;;;;;;;50.58;19.02;;;;;;;8.25;100.00;101612.19;5009115;28;20064;-66
2021/11/24 11:05:11;;;;;;;58.10;18.48;;;;;;;8.18;100.00;101601.22;5017889;28;20033;-66
2021/11/24 11:07:41;;;;;;;44.40;17.08;;;;;;;8.33;100.00;101590.28;5017723;28;20068;-66
2021/11/24 11:10:16;;;;;;;42.53;17.42;;;;;;;8.17;100.00;101588.91;5020611;28;20042;-66
2021/11/24 11:12:47;;;;;;;44.63;16.70;;;;;;;7.85;100.00;101578.25;5016780;28;20045;-66
2021/11/24 11:15:34;;;;;;;43.35;16.33;;;;;;;8.36;100.00;101574.88;5018688;28;20045;-65